Airfield :
LOGIN :

Register | Disclaimer

   EN    FR    IT 

 










Legend :    VFR   Marginal VFR   IFR   Intensive IFR   Very Intensive IFR
Visi :
Ceiling :
>= 8 km
>= 3000ft
5 to 8 km
1000 to 3000 ft
1500m to 5 km
500 to 1000 ft
800 to 1500m
200 to 500 ft
< 800m
< 200 ft
Symbols :   Thunderstorms  Fog  Heavy snow  Heavy precipitations  Wind > 20 kt
SIGMETs :     Misc.  Thunderstorms  Icing  Turbulence  Mountain Waves  Volcanic Ashes






- Airport Elevation : 226 ft
- IATA code : BEX


EGUB - RAF Benson

CURRENT METAR :
  • 251550Z 27005KT CAVOK 03/M01 Q1012 NOSIG RMK BLU BLU

EXPIRED METARs :
  • 251450Z 28009KT CAVOK 05/M00 Q1012 NOSIG RMK BLU BLU
  • 251420Z 27007KT CAVOK 05/00 Q1011 NOSIG RMK BLU BLU
  • 251350Z 27007KT CAVOK 05/00 Q1011 NOSIG RMK BLU BLU
  • 251320Z 27007KT CAVOK 04/M00 Q1011 NOSIG RMK BLU BLU
  • 251308Z 27010KT CAVOK 04/M00 Q1011 NOSIG RMK BLU BLU

TAF TAF EGUB
Valid from the 25 at 09:00 until the 25 at 18:00 UTC


250740Z 2509/2518 27005KT CAVOK
PROB40
TEMPO 2509/2510 5000 BR
ATIS : +44 1491-837766 (x7524)



MET'MAP, your aeronautical weather chart ! - Copyright ORBIFLY December 2007 - Disclaimer

ORBIFLY MET'MAP TEAM :

Programming & Development : Alexandra Zaïnal
Concept & original design : Baudouin d'Aumeries
Assistance for programming : Marc-Olivier Méhu
Technical & hardware support : Manuel Goepfert

Contact : metmap@orbifly.com




SOURCES & CREDITS :

   NOAA